createdAt,value
2023-01-13T00:00:38.264Z,100226.13
2023-01-13T00:03:06.729Z,100232.13
2023-01-13T00:05:35.605Z,100232.13
2023-01-13T00:08:04.899Z,100211.94
2023-01-13T00:10:35.210Z,100228.59
2023-01-13T00:13:05.880Z,100225.91
2023-01-13T00:15:34.621Z,100223.25
2023-01-13T00:18:03.186Z,100207.50
2023-01-13T00:20:31.395Z,100211.91
2023-01-13T00:23:00.135Z,100206.66
2023-01-13T00:25:28.441Z,100211.06
2023-01-13T00:27:58.021Z,100219.78
2023-01-13T00:30:26.305Z,100207.50
2023-01-13T00:32:55.302Z,100210.06
2023-01-13T00:35:23.794Z,100203.97
2023-01-13T00:37:52.127Z,100204.81
2023-01-13T00:40:20.535Z,100202.16
2023-01-13T00:43:06.245Z,100201.31
2023-01-13T00:45:35.870Z,100180.31
2023-01-13T00:48:04.702Z,100183.84
2023-01-13T00:50:33.470Z,100187.38
2023-01-13T00:53:02.092Z,100185.69
2023-01-13T00:55:32.849Z,100179.56
2023-01-13T00:58:03.566Z,100169.94
2023-01-13T01:00:32.336Z,100166.38
2023-01-13T01:03:02.014Z,100172.47
2023-01-13T01:05:30.251Z,100171.63
2023-01-13T01:07:58.756Z,100169.00
2023-01-13T01:10:27.141Z,100163.84
2023-01-13T01:12:55.693Z,100173.34
2023-01-13T01:15:24.265Z,100181.19
2023-01-13T01:17:52.772Z,100162.72
2023-01-13T01:20:22.544Z,100176.66
2023-01-13T01:22:50.827Z,100172.28
2023-01-13T01:25:19.386Z,100157.38
2023-01-13T01:27:47.648Z,100162.63
2023-01-13T01:30:16.752Z,100159.97
2023-01-13T01:32:44.980Z,100152.13
2023-01-13T01:35:13.210Z,100161.78
2023-01-13T01:37:42.784Z,100158.38
2023-01-13T01:40:12.902Z,100160.19
2023-01-13T01:42:58.979Z,100148.84
2023-01-13T01:45:30.511Z,100138.44
2023-01-13T01:48:02.221Z,100143.69
2023-01-13T01:50:32.326Z,100133.31
2023-01-13T01:53:08.225Z,100146.47
2023-01-13T01:55:37.982Z,100136.81
2023-01-13T01:58:12.591Z,100135.22
2023-01-13T02:00:41.171Z,100139.66
2023-01-13T02:03:11.979Z,100134.50
2023-01-13T02:05:41.188Z,100133.72
2023-01-13T02:08:14.099Z,100120.63
2023-01-13T02:10:46.420Z,100123.34
2023-01-13T02:13:14.516Z,100120.75
2023-01-13T02:15:52.973Z,100126.06
2023-01-13T02:18:39.256Z,100108.59
2023-01-13T02:22:01.614Z,100122.72
2023-01-13T02:25:04.863Z,100103.50
2023-01-13T02:28:07.708Z,100100.94
2023-01-13T02:31:03.295Z,100098.19
2023-01-13T02:34:02.714Z,100101.75
2023-01-13T02:36:40.327Z,100101.63
2023-01-13T02:39:17.530Z,100099.00
2023-01-13T02:42:18.064Z,100093.66
2023-01-13T02:45:09.108Z,100091.97
2023-01-13T02:47:43.979Z,100076.16
2023-01-13T02:50:13.935Z,100084.16
2023-01-13T02:52:46.252Z,100066.59
2023-01-13T02:55:23.037Z,100073.59
2023-01-13T02:57:53.664Z,100070.00
2023-01-13T03:00:23.996Z,100088.31
2023-01-13T03:02:53.997Z,100092.59
2023-01-13T03:05:22.620Z,100059.28
2023-01-13T03:08:15.627Z,100065.41
2023-01-13T03:11:05.703Z,100079.41
2023-01-13T03:14:02.986Z,100053.19
2023-01-13T03:16:39.384Z,100047.81
2023-01-13T03:19:23.691Z,100046.13
2023-01-13T03:21:58.315Z,100057.44
2023-01-13T03:24:35.339Z,100061.75
2023-01-13T03:27:09.290Z,100062.56
2023-01-13T03:29:42.136Z,100054.69
2023-01-13T03:32:16.001Z,100052.84
2023-01-13T03:34:51.087Z,100063.34
2023-01-13T03:37:26.250Z,100051.03
2023-01-13T03:40:01.426Z,100047.50
2023-01-13T03:42:34.999Z,100050.94
2023-01-13T03:45:10.520Z,100035.09
2023-01-13T03:47:48.375Z,100049.78
2023-01-13T03:50:23.642Z,100033.03
2023-01-13T03:52:56.757Z,100023.41
2023-01-13T03:55:31.288Z,100034.72
2023-01-13T03:58:06.732Z,100025.06
2023-01-13T04:00:43.332Z,100029.38
2023-01-13T04:03:15.505Z,100019.69
2023-01-13T04:05:51.119Z,100025.75
2023-01-13T04:08:23.512Z,100013.41
2023-01-13T04:10:59.233Z,100010.78
2023-01-13T04:13:32.258Z,100010.00
2023-01-13T04:16:01.615Z,100013.53
2023-01-13T04:18:31.840Z,99991.63
2023-01-13T04:21:02.824Z,100015.25
2023-01-13T04:23:31.124Z,99999.50
2023-01-13T04:25:59.609Z,99991.63
2023-01-13T04:28:28.069Z,100001.31
2023-01-13T04:30:56.584Z,100002.22
2023-01-13T04:33:25.130Z,100011.81
2023-01-13T04:35:53.683Z,100002.19
2023-01-13T04:38:23.798Z,100013.53
2023-01-13T04:40:52.023Z,100008.28
2023-01-13T04:43:20.544Z,99989.00
2023-01-13T04:45:49.042Z,100000.28
2023-01-13T04:48:17.564Z,99990.59
2023-01-13T04:50:45.801Z,99987.97
2023-01-13T04:53:14.094Z,99993.16
2023-01-13T04:55:44.392Z,99993.22
2023-01-13T04:58:12.881Z,99987.03
2023-01-13T05:00:41.449Z,99994.81
2023-01-13T05:03:09.712Z,99993.03
2023-01-13T05:05:38.940Z,99977.28
2023-01-13T05:08:08.951Z,99987.78
2023-01-13T05:10:37.787Z,99985.97
2023-01-13T05:13:24.904Z,99985.00
2023-01-13T05:16:18.840Z,99966.63
2023-01-13T05:18:47.140Z,99962.34
2023-01-13T05:21:29.259Z,99981.56
2023-01-13T05:24:15.209Z,99959.69
2023-01-13T05:26:43.455Z,99950.03
2023-01-13T05:29:13.008Z,99949.16
2023-01-13T05:31:41.580Z,99952.56
2023-01-13T05:34:09.760Z,99949.06
2023-01-13T05:36:38.047Z,99952.56
2023-01-13T05:39:06.310Z,99947.31
2023-01-13T05:41:52.186Z,99956.03
2023-01-13T05:44:21.814Z,99960.44
2023-01-13T05:46:50.088Z,99967.44
2023-01-13T05:49:18.495Z,99962.19
2023-01-13T05:51:46.976Z,99981.41
2023-01-13T05:54:15.427Z,99983.06
2023-01-13T05:56:43.655Z,99992.63
2023-01-13T05:59:12.137Z,100014.50
2023-01-13T06:01:41.664Z,99999.56
2023-01-13T06:04:10.052Z,100016.13
2023-01-13T06:06:38.640Z,100014.34
2023-01-13T06:09:06.899Z,100014.25
2023-01-13T06:11:35.111Z,100030.09
2023-01-13T06:14:03.334Z,100031.22
2023-01-13T06:16:31.579Z,100048.50
2023-01-13T06:19:01.234Z,100045.91
2023-01-13T06:21:30.534Z,100067.66
2023-01-13T06:24:00.765Z,100066.53
2023-01-13T06:26:31.367Z,100107.19
2023-01-13T06:28:59.933Z,100121.63
2023-01-13T06:31:28.596Z,100099.63
2023-01-13T06:34:03.536Z,100094.09
2023-01-13T06:36:38.367Z,100097.22
2023-01-13T06:39:07.284Z,100107.19
2023-01-13T06:41:53.179Z,100104.03
2023-01-13T06:44:24.513Z,100116.63
2023-01-13T06:46:53.488Z,100106.41
2023-01-13T06:49:23.230Z,100109.22
2023-01-13T06:51:51.681Z,100117.22
2023-01-13T06:54:19.893Z,100099.06
2023-01-13T06:56:48.248Z,100102.69
2023-01-13T06:59:17.420Z,100097.63
2023-01-13T07:01:45.951Z,100093.38
2023-01-13T07:04:14.656Z,100088.22
2023-01-13T07:06:44.359Z,100074.41
2023-01-13T07:09:12.796Z,100090.16
2023-01-13T07:11:41.327Z,100098.88
2023-01-13T07:14:27.446Z,100084.03
2023-01-13T07:16:55.717Z,100086.63
2023-01-13T07:19:24.249Z,100098.78
2023-01-13T07:21:53.964Z,100106.59
2023-01-13T07:24:23.466Z,100124.00
2023-01-13T07:26:52.564Z,100120.47
2023-01-13T07:29:20.901Z,100111.78
2023-01-13T07:31:50.290Z,100111.78
2023-01-13T07:34:18.718Z,100087.47
2023-01-13T07:36:47.270Z,100130.19
2023-01-13T07:39:16.847Z,100106.66
2023-01-13T07:42:03.002Z,100115.41
2023-01-13T07:44:31.366Z,100106.66
2023-01-13T07:46:59.713Z,100103.16
2023-01-13T07:49:28.003Z,100124.09
2023-01-13T07:51:56.234Z,100130.94
2023-01-13T07:54:39.619Z,100130.91
2023-01-13T07:57:10.206Z,100140.38
2023-01-13T07:59:38.691Z,100142.91
2023-01-13T08:02:07.511Z,100144.59
2023-01-13T08:04:35.819Z,100142.81
2023-01-13T08:07:04.958Z,100149.84
2023-01-13T08:09:34.528Z,100153.34
2023-01-13T08:12:20.319Z,100170.84
2023-01-13T08:14:50.139Z,100191.00
2023-01-13T08:17:20.458Z,100212.81
2023-01-13T08:19:49.019Z,100211.84
2023-01-13T08:22:17.651Z,100207.38
2023-01-13T08:24:47.239Z,100210.75
2023-01-13T08:27:15.503Z,100215.03
2023-01-13T08:29:44.106Z,100226.28
2023-01-13T08:32:12.625Z,100226.28
2023-01-13T08:34:40.875Z,100241.91
2023-01-13T08:37:09.177Z,100233.13
2023-01-13T08:39:37.769Z,100234.78
2023-01-13T08:42:07.520Z,100226.06
2023-01-13T08:44:35.816Z,100234.66
2023-01-13T08:47:05.757Z,100227.53
2023-01-13T08:49:34.032Z,100242.19
2023-01-13T08:52:02.216Z,100237.66
2023-01-13T08:54:30.460Z,100249.72
2023-01-13T08:56:59.617Z,100231.16
2023-01-13T08:59:30.338Z,100241.38
2023-01-13T09:01:58.805Z,100236.81
2023-01-13T09:04:29.708Z,100231.34
2023-01-13T09:06:58.988Z,100235.28
2023-01-13T09:09:28.369Z,100221.56
2023-01-13T09:12:14.133Z,100232.72
2023-01-13T09:14:43.821Z,100232.38
2023-01-13T09:17:12.331Z,100244.81
2023-01-13T09:19:40.599Z,100246.41
2023-01-13T09:22:10.879Z,100267.78
2023-01-13T09:24:39.114Z,100245.28
2023-01-13T09:27:07.314Z,100255.09
2023-01-13T09:29:35.534Z,100256.19
2023-01-13T09:32:05.946Z,100275.00
2023-01-13T09:34:52.072Z,100257.06
2023-01-13T09:37:20.387Z,100261.75
2023-01-13T09:39:48.906Z,100268.38
2023-01-13T09:42:44.793Z,100263.03
2023-01-13T09:45:17.470Z,100284.72
2023-01-13T09:47:56.620Z,100278.81
2023-01-13T09:50:40.903Z,100287.59
2023-01-13T09:53:16.108Z,100290.31
2023-01-13T09:55:45.542Z,100299.50
2023-01-13T09:58:17.282Z,100299.97
2023-01-13T10:00:57.946Z,100313.44
2023-01-13T10:03:30.507Z,100307.50
2023-01-13T10:06:06.821Z,100306.63
2023-01-13T10:08:38.798Z,100319.66
2023-01-13T10:11:28.328Z,100326.47
2023-01-13T10:14:01.238Z,100340.19
2023-01-13T10:16:42.228Z,100319.63
2023-01-13T10:19:19.886Z,100318.19
2023-01-13T10:22:32.034Z,100315.78
2023-01-13T10:25:23.221Z,100319.53
2023-01-13T10:27:54.679Z,100328.38
2023-01-13T10:30:30.998Z,100323.22
2023-01-13T10:33:01.899Z,100312.63
2023-01-13T10:35:53.495Z,100321.03
2023-01-13T10:38:25.377Z,100310.94
2023-01-13T10:40:57.253Z,100309.50
2023-01-13T10:43:26.888Z,100313.56
2023-01-13T10:46:05.551Z,100311.56
2023-01-13T10:48:38.395Z,100318.44
2023-01-13T10:51:24.268Z,100314.06
2023-01-13T10:54:00.150Z,100326.84
2023-01-13T10:56:32.324Z,100314.44
2023-01-13T10:59:23.233Z,100302.91
2023-01-13T11:02:07.888Z,100311.38
2023-01-13T11:04:44.963Z,100312.84
2023-01-13T11:07:29.283Z,100301.16
2023-01-13T11:10:20.312Z,100295.50
2023-01-13T11:12:58.686Z,100295.31
2023-01-13T11:15:41.012Z,100302.38
2023-01-13T11:18:20.595Z,100289.44
2023-01-13T11:20:52.591Z,100303.41
2023-01-13T11:23:27.805Z,100301.03
2023-01-13T11:26:05.182Z,100301.31
2023-01-13T11:28:45.534Z,100301.75
2023-01-13T11:31:24.543Z,100303.00
2023-01-13T11:34:00.328Z,100296.00
2023-01-13T11:36:35.412Z,100307.56
2023-01-13T11:39:18.530Z,100300.06
2023-01-13T11:42:13.730Z,100308.41
2023-01-13T11:44:50.647Z,100354.16
2023-01-13T11:47:24.633Z,100326.03
2023-01-13T11:49:53.118Z,100319.94
2023-01-13T11:52:29.042Z,100316.31
2023-01-13T11:55:25.170Z,100319.75
2023-01-13T11:58:21.259Z,100334.06
2023-01-13T12:01:05.267Z,100334.16
2023-01-13T12:03:40.292Z,100330.31
2023-01-13T12:06:30.714Z,100342.78
2023-01-13T12:09:16.111Z,100325.44
2023-01-13T12:12:20.233Z,100345.06
2023-01-13T12:15:24.199Z,100329.38
2023-01-13T12:18:09.747Z,100330.41
2023-01-13T12:20:50.595Z,100352.25
2023-01-13T12:23:31.709Z,100341.63
2023-01-13T12:26:06.284Z,100326.28
2023-01-13T12:28:46.340Z,100328.03
2023-01-13T12:31:18.691Z,100308.97
2023-01-13T12:34:02.563Z,100335.47
2023-01-13T12:36:42.803Z,100334.25
2023-01-13T12:39:24.916Z,100331.41
2023-01-13T12:42:16.379Z,100314.94
2023-01-13T12:45:21.821Z,100328.66
2023-01-13T12:47:50.566Z,100318.38
2023-01-13T12:51:00.542Z,100319.28
2023-01-13T12:53:38.780Z,100296.50
2023-01-13T12:56:40.683Z,100293.53
2023-01-13T12:59:48.954Z,100296.84
2023-01-13T13:02:37.636Z,100298.38
2023-01-13T13:05:41.858Z,100294.72
2023-01-13T13:08:26.798Z,100303.00
2023-01-13T13:11:39.117Z,100315.22
2023-01-13T13:14:10.571Z,100295.88
2023-01-13T13:16:51.989Z,100304.00
2023-01-13T13:19:50.674Z,100315.16
2023-01-13T13:22:38.418Z,100308.31
2023-01-13T13:25:27.243Z,100321.16
2023-01-13T13:28:19.234Z,100336.63
2023-01-13T13:31:06.559Z,100341.13
2023-01-13T13:34:02.953Z,100345.00
2023-01-13T13:36:54.143Z,100355.16
2023-01-13T13:39:44.067Z,100340.28
2023-01-13T13:42:34.403Z,100359.28
2023-01-13T13:45:21.862Z,100366.13
2023-01-13T13:47:51.498Z,100373.59
2023-01-13T13:50:22.152Z,100373.03
2023-01-13T13:52:58.930Z,100370.13
2023-01-13T13:55:29.719Z,100377.38
2023-01-13T13:58:01.516Z,100387.69
2023-01-13T14:00:32.880Z,100382.44
2023-01-13T14:03:03.974Z,100374.66
2023-01-13T14:05:34.264Z,100370.13
2023-01-13T14:08:14.221Z,100372.53
2023-01-13T14:10:45.564Z,100382.13
2023-01-13T14:13:22.971Z,100378.00
2023-01-13T14:15:57.501Z,100368.31
2023-01-13T14:18:27.318Z,100362.09
2023-01-13T14:20:59.390Z,100389.22
2023-01-13T14:23:31.335Z,100384.06
2023-01-13T14:26:07.839Z,100399.94
2023-01-13T14:28:42.091Z,100410.56
2023-01-13T14:31:11.775Z,100410.56
2023-01-13T14:33:43.877Z,100419.22
2023-01-13T14:36:18.560Z,100410.34
2023-01-13T14:38:50.757Z,100411.84
2023-01-13T14:41:26.610Z,100420.56
2023-01-13T14:43:59.258Z,100412.63
2023-01-13T14:46:38.966Z,100415.50
2023-01-13T14:49:17.095Z,100417.50
2023-01-13T14:51:45.997Z,100422.25
2023-01-13T14:54:47.827Z,100419.81
2023-01-13T14:57:27.376Z,100439.31
2023-01-13T15:00:08.251Z,100431.88
2023-01-13T15:02:46.151Z,100439.28
2023-01-13T15:05:47.281Z,100453.13
2023-01-13T15:08:37.875Z,100461.47
2023-01-13T15:11:19.212Z,100464.25
2023-01-13T15:13:54.770Z,100473.00
2023-01-13T15:16:25.906Z,100475.06
2023-01-13T15:18:55.024Z,100476.41
2023-01-13T15:21:24.073Z,100482.97
2023-01-13T15:23:52.800Z,100479.78
2023-01-13T15:26:26.487Z,100514.28
2023-01-13T15:28:56.743Z,100506.72
2023-01-13T15:31:26.866Z,100508.78
2023-01-13T15:33:55.889Z,100520.38
2023-01-13T15:36:28.121Z,100517.91
2023-01-13T15:38:57.199Z,100518.97
2023-01-13T15:41:44.899Z,100532.19
2023-01-13T15:44:32.589Z,100540.97
2023-01-13T15:47:06.123Z,100539.28
2023-01-13T15:49:38.594Z,100532.25
2023-01-13T15:52:21.327Z,100538.28
2023-01-13T15:54:49.846Z,100547.75
2023-01-13T15:57:24.777Z,100549.47
2023-01-13T15:59:57.109Z,100554.66
2023-01-13T16:02:25.603Z,100558.09
2023-01-13T16:04:54.811Z,100562.41
2023-01-13T16:07:26.000Z,100564.97
2023-01-13T16:09:54.516Z,100565.84
2023-01-13T16:12:24.138Z,100577.19
2023-01-13T16:14:52.741Z,100596.34
2023-01-13T16:17:24.873Z,100590.25
2023-01-13T16:19:53.458Z,100603.31
2023-01-13T16:22:21.988Z,100602.38
2023-01-13T16:24:50.322Z,100607.59
2023-01-13T16:27:21.698Z,100617.16
2023-01-13T16:29:52.561Z,100624.13
2023-01-13T16:32:21.292Z,100637.25
2023-01-13T16:34:50.043Z,100639.94
2023-01-13T16:37:22.785Z,100641.75
2023-01-13T16:39:52.364Z,100646.22
2023-01-13T16:42:20.793Z,100646.28
2023-01-13T16:44:49.720Z,100642.88
2023-01-13T16:47:20.183Z,100650.81
2023-01-13T16:49:48.512Z,100638.69
2023-01-13T16:52:16.729Z,100643.19
2023-01-13T16:54:45.023Z,100649.38
2023-01-13T16:57:15.862Z,100647.75
2023-01-13T16:59:44.404Z,100656.50
2023-01-13T17:02:15.611Z,100660.88
2023-01-13T17:04:45.325Z,100664.41
2023-01-13T17:07:17.754Z,100666.19
2023-01-13T17:09:46.439Z,100669.72
2023-01-13T17:12:14.672Z,100675.84
2023-01-13T17:14:44.268Z,100671.53
2023-01-13T17:17:23.427Z,100674.22
2023-01-13T17:19:54.653Z,100690.84
2023-01-13T17:22:24.207Z,100685.63
2023-01-13T17:24:52.552Z,100690.88
2023-01-13T17:27:21.436Z,100701.38
2023-01-13T17:29:49.875Z,100691.81
2023-01-13T17:32:18.914Z,100707.56
2023-01-13T17:34:47.576Z,100700.69
2023-01-13T17:37:18.161Z,100704.22
2023-01-13T17:39:48.326Z,100706.03
2023-01-13T17:42:16.862Z,100715.63
2023-01-13T17:44:45.185Z,100726.94
2023-01-13T17:47:13.529Z,100728.75
2023-01-13T17:49:41.760Z,100725.25
2023-01-13T17:52:10.369Z,100724.38
2023-01-13T17:54:42.955Z,100736.66
2023-01-13T17:57:11.541Z,100739.31
2023-01-13T17:59:41.356Z,100751.53
2023-01-13T18:02:13.357Z,100750.63
2023-01-13T18:04:42.420Z,100749.78
2023-01-13T18:07:10.645Z,100751.47
2023-01-13T18:09:40.296Z,100747.97
2023-01-13T18:12:08.614Z,100751.44
2023-01-13T18:14:36.877Z,100771.50
2023-01-13T18:17:05.264Z,100779.31
2023-01-13T18:19:53.422Z,100773.22
2023-01-13T18:22:39.617Z,100781.97
2023-01-13T18:25:30.599Z,100784.63
2023-01-13T18:27:59.499Z,100794.28
2023-01-13T18:30:27.719Z,100788.19
2023-01-13T18:32:56.443Z,100790.00
2023-01-13T18:35:24.959Z,100790.00
2023-01-13T18:37:53.258Z,100801.34
2023-01-13T18:40:23.091Z,100780.41
2023-01-13T18:42:54.682Z,100775.16
2023-01-13T18:45:26.228Z,100797.78
2023-01-13T18:47:56.750Z,100789.84
2023-01-13T18:50:25.836Z,100803.78
2023-01-13T18:52:54.175Z,100801.13
2023-01-13T18:55:23.908Z,100806.38
2023-01-13T18:57:53.077Z,100827.28
2023-01-13T19:00:24.582Z,100806.41
2023-01-13T19:05:36.292Z,100809.19
2023-01-13T19:08:05.129Z,100799.69
2023-01-13T19:10:34.775Z,100811.03
2023-01-13T19:13:03.172Z,100800.63
2023-01-13T19:15:31.660Z,100821.53
2023-01-13T19:18:00.327Z,100816.34
2023-01-13T19:20:28.610Z,100831.19
2023-01-13T19:22:56.873Z,100836.44
2023-01-13T19:25:25.112Z,100852.13
2023-01-13T19:27:54.728Z,100844.28
2023-01-13T19:30:22.960Z,100846.94
2023-01-13T19:32:51.221Z,100858.28
2023-01-13T19:35:20.041Z,100863.56
2023-01-13T19:37:48.321Z,100860.94
2023-01-13T19:40:17.254Z,100851.44
2023-01-13T19:43:03.358Z,100870.56
2023-01-13T19:45:35.269Z,100860.97
2023-01-13T19:48:05.477Z,100866.25
2023-01-13T19:50:38.397Z,100874.13
2023-01-13T19:53:07.230Z,100877.63
2023-01-13T19:55:35.950Z,100896.81
2023-01-13T19:58:04.418Z,100889.84
2023-01-13T20:00:34.854Z,100891.56
2023-01-13T20:03:07.963Z,100902.91
2023-01-13T20:05:36.357Z,100894.16
2023-01-13T20:08:04.911Z,100891.50
2023-01-13T20:10:33.207Z,100900.19
2023-01-13T20:13:02.392Z,100901.00
2023-01-13T20:15:31.080Z,100915.78
2023-01-13T20:18:00.799Z,100901.78
2023-01-13T20:20:29.112Z,100895.69
2023-01-13T20:22:58.125Z,100914.81
2023-01-13T20:25:28.529Z,100898.28
2023-01-13T20:27:58.513Z,100911.31
2023-01-13T20:30:27.071Z,100917.38
2023-01-13T20:32:55.598Z,100906.88
2023-01-13T20:35:29.919Z,100921.69
2023-01-13T20:37:58.333Z,100908.63
2023-01-13T20:40:26.607Z,100926.06
2023-01-13T20:42:54.655Z,100922.56
2023-01-13T20:45:23.348Z,100927.75
2023-01-13T20:47:51.953Z,100933.88
2023-01-13T20:50:20.545Z,100936.53
2023-01-13T20:52:52.467Z,100939.16
2023-01-13T20:55:20.800Z,100953.13
2023-01-13T20:57:50.323Z,100940.97
2023-01-13T21:00:20.271Z,100942.72
2023-01-13T21:02:48.901Z,100954.06
2023-01-13T21:05:17.584Z,100950.59
2023-01-13T21:07:45.991Z,100951.50
2023-01-13T21:10:15.774Z,100955.81
2023-01-13T21:13:01.957Z,100955.84
2023-01-13T21:15:30.600Z,100958.50
2023-01-13T21:18:16.284Z,100975.94
2023-01-13T21:20:44.555Z,100964.63
2023-01-13T21:23:12.835Z,100960.28
2023-01-13T21:25:43.247Z,100973.41
2023-01-13T21:28:13.437Z,100978.69
2023-01-13T21:30:41.941Z,100979.63
2023-01-13T21:33:14.685Z,100970.97
2023-01-13T21:35:43.304Z,100977.94
2023-01-13T21:38:13.533Z,100978.88
2023-01-13T21:40:43.176Z,100979.78
2023-01-13T21:43:31.148Z,100978.06
2023-01-13T21:46:31.805Z,100990.25
2023-01-13T21:49:00.474Z,100985.91
2023-01-13T21:51:29.330Z,100985.91
2023-01-13T21:53:58.567Z,100991.97
2023-01-13T21:56:28.439Z,100990.19
2023-01-13T21:58:57.107Z,100995.41
2023-01-13T22:01:25.492Z,100985.81
2023-01-13T22:04:13.516Z,100996.25
2023-01-13T22:06:42.244Z,101001.50
2023-01-13T22:09:10.743Z,100992.75
2023-01-13T22:11:40.412Z,101003.22
2023-01-13T22:14:10.053Z,101005.81
2023-01-13T22:16:41.751Z,100984.94
2023-01-13T22:19:11.380Z,100986.69
2023-01-13T22:21:40.131Z,100985.84
2023-01-13T22:24:08.968Z,100990.22
2023-01-13T22:26:37.184Z,100988.50
2023-01-13T22:29:06.790Z,100993.78
2023-01-13T22:31:35.144Z,101001.63
2023-01-13T22:34:03.436Z,101006.88
2023-01-13T22:36:31.931Z,101023.38
2023-01-13T22:39:01.232Z,101038.16
2023-01-13T22:41:29.576Z,101022.47
2023-01-13T22:43:57.816Z,101021.56
2023-01-13T22:46:27.449Z,101033.75
2023-01-13T22:48:56.113Z,101036.34
2023-01-13T22:51:26.425Z,101039.81
2023-01-13T22:53:55.136Z,101037.25
2023-01-13T22:56:25.640Z,101038.09
2023-01-13T22:58:58.103Z,101052.03
2023-01-13T23:01:30.020Z,101035.44
2023-01-13T23:03:58.700Z,101034.56
2023-01-13T23:06:29.480Z,101030.22
2023-01-13T23:08:57.825Z,101027.59
2023-01-13T23:11:29.244Z,101038.03
2023-01-13T23:14:02.428Z,101046.75
2023-01-13T23:16:34.958Z,101048.44
2023-01-13T23:19:03.754Z,101048.47
2023-01-13T23:21:36.033Z,101050.19
2023-01-13T23:24:05.698Z,101044.97
2023-01-13T23:26:35.414Z,101045.00
2023-01-13T23:29:06.834Z,101037.16
2023-01-13T23:31:36.862Z,101038.06
2023-01-13T23:34:05.096Z,101052.00
2023-01-13T23:36:33.498Z,101041.53
2023-01-13T23:39:02.033Z,101050.22
2023-01-13T23:41:30.616Z,101048.47
2023-01-13T23:44:01.356Z,101044.13
2023-01-13T23:46:32.627Z,101046.75
2023-01-13T23:49:03.599Z,101045.84
2023-01-13T23:51:32.528Z,101045.00
2023-01-13T23:54:01.293Z,101045.00
2023-01-13T23:56:32.253Z,101033.72
2023-01-13T23:59:00.869Z,101043.31
